TimeCST,TemperatureF,Dew PointF,Humidity,Sea Level PressureIn,VisibilityMPH,Wind Direction,Wind SpeedMPH,Gust SpeedMPH,PrecipitationIn,Events,Conditions,WindDirDegrees,DateUTC
12:15 AM,44.6,41.0,87,29.81,7.0,ESE,10.4,-,N/A,,Overcast,110,2013-02-10 06:15:00
12:35 AM,44.6,41.0,87,29.80,7.0,East,10.4,-,N/A,,Overcast,100,2013-02-10 06:35:00
12:55 AM,44.6,41.0,87,29.79,7.0,East,11.5,-,N/A,,Overcast,90,2013-02-10 06:55:00
1:15 AM,44.6,41.0,87,29.78,7.0,East,13.8,-,N/A,,Overcast,100,2013-02-10 07:15:00
1:35 AM,44.6,41.0,87,29.75,7.0,East,13.8,-,N/A,,Overcast,100,2013-02-10 07:35:00
1:55 AM,44.6,42.8,93,29.72,7.0,East,10.4,-,N/A,,Overcast,100,2013-02-10 07:55:00
2:15 AM,44.6,42.8,93,29.71,5.0,East,8.1,17.3,N/A,,Overcast,90,2013-02-10 08:15:00
2:35 AM,46.4,44.6,93,29.75,6.0,NNE,8.1,-,N/A,Thunderstorm,Overcast,20,2013-02-10 08:35:00
2:55 AM,46.4,44.6,93,29.72,5.0,East,10.4,-,N/A,Rain-Thunderstorm,Light Rain,90,2013-02-10 08:55:00
3:15 AM,46.4,46.4,100,29.72,4.0,NE,5.8,-,0.04,Rain-Thunderstorm,Light Rain,40,2013-02-10 09:15:00
3:55 AM,44.6,44.6,100,29.69,3.0,ESE,15.0,18.4,0.32,Rain,Rain,110,2013-02-10 09:55:00
4:15 AM,46.4,46.4,100,29.70,4.0,ESE,12.7,-,N/A,,Overcast,120,2013-02-10 10:15:00
4:35 AM,48.2,48.2,100,29.71,3.0,SSE,8.1,-,0.03,Rain-Thunderstorm,Rain,160,2013-02-10 10:35:00
4:55 AM,50.0,50.0,100,29.68,3.0,SSE,17.3,26.5,0.12,Rain-Thunderstorm,Heavy Rain,150,2013-02-10 10:55:00
5:15 AM,53.6,53.6,100,29.66,4.0,South,11.5,25.3,0.03,Rain-Thunderstorm,Light Rain,170,2013-02-10 11:15:00
5:35 AM,53.6,53.6,100,29.67,10.0,South,3.5,-,0.03,,Overcast,180,2013-02-10 11:35:00
5:55 AM,53.6,53.6,100,29.67,10.0,SSE,4.6,-,0.03,,Mostly Cloudy,160,2013-02-10 11:55:00
6:15 AM,53.6,53.6,100,29.70,4.0,West,5.8,-,0.04,Rain,Light Rain,270,2013-02-10 12:15:00
6:35 AM,55.4,55.4,100,29.71,4.0,SSW,10.4,17.3,0.06,Rain,Light Rain,200,2013-02-10 12:35:00
6:55 AM,55.4,55.4,100,29.71,10.0,SW,9.2,-,0.06,,Overcast,220,2013-02-10 12:55:00
7:15 AM,53.6,53.6,100,29.71,10.0,SW,8.1,-,N/A,,Overcast,230,2013-02-10 13:15:00
7:35 AM,53.6,53.6,100,29.71,10.0,SSW,5.8,-,N/A,,Scattered Clouds,210,2013-02-10 13:35:00
7:55 AM,53.6,53.6,100,29.73,10.0,SW,9.2,-,N/A,,Clear,220,2013-02-10 13:55:00
8:15 AM,53.6,53.6,100,29.74,10.0,WSW,8.1,-,N/A,,Clear,240,2013-02-10 14:15:00
8:35 AM,53.6,48.2,82,29.74,10.0,WSW,8.1,-,N/A,,Clear,250,2013-02-10 14:35:00
8:55 AM,55.4,48.2,77,29.75,10.0,SW,6.9,-,N/A,,Clear,220,2013-02-10 14:55:00
9:15 AM,55.4,48.2,77,29.76,10.0,WSW,9.2,-,N/A,,Clear,240,2013-02-10 15:15:00
9:35 AM,57.2,42.8,59,29.76,10.0,West,15.0,19.6,N/A,,Clear,260,2013-02-10 15:35:00
9:55 AM,57.2,35.6,44,29.76,9.0,West,15.0,24.2,N/A,,Clear,270,2013-02-10 15:55:00
10:15 AM,57.2,33.8,41,29.77,10.0,West,16.1,24.2,N/A,,Clear,270,2013-02-10 16:15:00
10:35 AM,57.2,32.0,38,29.77,10.0,West,16.1,20.7,N/A,,Clear,260,2013-02-10 16:35:00
10:55 AM,57.2,32.0,38,29.78,10.0,West,13.8,20.7,N/A,,Clear,260,2013-02-10 16:55:00
11:15 AM,59.0,32.0,36,29.78,10.0,West,15.0,20.7,N/A,,Clear,260,2013-02-10 17:15:00
11:35 AM,59.0,32.0,36,29.78,10.0,WSW,17.3,-,N/A,,Clear,240,2013-02-10 17:35:00
11:55 AM,59.0,28.4,31,29.78,10.0,WSW,15.0,-,N/A,,Clear,250,2013-02-10 17:55:00
12:15 PM,59.0,28.4,31,29.78,10.0,West,15.0,21.9,N/A,,Clear,260,2013-02-10 18:15:00
12:35 PM,59.0,30.2,34,29.77,10.0,West,16.1,24.2,N/A,,Clear,260,2013-02-10 18:35:00
12:55 PM,59.0,28.4,31,29.77,10.0,WSW,16.1,20.7,N/A,,Clear,250,2013-02-10 18:55:00
1:15 PM,59.0,26.6,29,29.76,10.0,WSW,17.3,24.2,N/A,,Clear,250,2013-02-10 19:15:00
1:35 PM,59.0,28.4,31,29.76,10.0,WSW,13.8,23.0,N/A,,Clear,240,2013-02-10 19:35:00
1:55 PM,59.0,28.4,31,29.77,10.0,West,16.1,21.9,N/A,,Clear,260,2013-02-10 19:55:00
2:15 PM,60.8,30.2,31,29.77,10.0,WSW,16.1,21.9,N/A,,Clear,240,2013-02-10 20:15:00
2:35 PM,62.6,28.4,27,29.78,10.0,West,15.0,23.0,N/A,,Clear,280,2013-02-10 20:35:00
2:55 PM,60.8,26.6,27,29.78,10.0,West,15.0,23.0,N/A,,Clear,270,2013-02-10 20:55:00
3:15 PM,62.6,26.6,26,29.79,10.0,West,13.8,20.7,N/A,,Clear,270,2013-02-10 21:15:00
3:35 PM,62.6,26.6,26,29.79,10.0,West,13.8,20.7,N/A,,Clear,280,2013-02-10 21:35:00
3:55 PM,62.6,26.6,26,29.80,9.0,West,12.7,-,N/A,,Clear,280,2013-02-10 21:55:00
4:15 PM,62.6,26.6,26,29.81,10.0,West,13.8,20.7,N/A,,Clear,280,2013-02-10 22:15:00
4:35 PM,62.6,24.8,24,29.81,9.0,West,12.7,19.6,N/A,,Clear,280,2013-02-10 22:35:00
4:55 PM,60.8,26.6,27,29.82,10.0,West,13.8,-,N/A,,Clear,270,2013-02-10 22:55:00
5:15 PM,59.0,26.6,29,29.83,10.0,West,9.2,-,N/A,,Clear,270,2013-02-10 23:15:00
5:35 PM,59.0,26.6,29,29.84,10.0,West,9.2,-,N/A,,Clear,280,2013-02-10 23:35:00
5:55 PM,55.4,28.4,36,29.85,10.0,West,6.9,-,N/A,,Clear,270,2013-02-10 23:55:00
6:15 PM,55.4,26.6,33,29.86,10.0,West,8.1,-,N/A,,Clear,270,2013-02-11 00:15:00
6:35 PM,53.6,28.4,38,29.88,10.0,West,5.8,-,N/A,,Clear,260,2013-02-11 00:35:00
6:55 PM,50.0,30.2,47,29.88,10.0,West,4.6,-,N/A,,Clear,260,2013-02-11 00:55:00
7:15 PM,48.2,28.4,46,29.90,10.0,West,5.8,-,N/A,,Clear,270,2013-02-11 01:15:00
7:35 PM,50.0,28.4,43,29.91,10.0,West,6.9,-,N/A,,Clear,280,2013-02-11 01:35:00
7:55 PM,48.2,28.4,46,29.92,10.0,West,6.9,-,N/A,,Clear,260,2013-02-11 01:55:00
8:15 PM,46.4,30.2,53,29.93,10.0,West,5.8,-,N/A,,Clear,280,2013-02-11 02:15:00
8:35 PM,48.2,28.4,46,29.96,10.0,NW,9.2,-,N/A,,Clear,320,2013-02-11 02:35:00
8:55 PM,50.0,26.6,40,29.98,10.0,NW,9.2,-,N/A,,Clear,320,2013-02-11 02:55:00
9:15 PM,50.0,24.8,37,30.00,10.0,NW,12.7,20.7,N/A,,Clear,320,2013-02-11 03:15:00
9:35 PM,48.2,24.8,40,30.02,10.0,NW,10.4,-,N/A,,Clear,320,2013-02-11 03:35:00
9:55 PM,48.2,26.6,43,30.03,10.0,NNW,8.1,-,N/A,,Clear,340,2013-02-11 03:55:00
10:15 PM,46.4,26.6,46,30.05,10.0,NNW,8.1,-,N/A,,Clear,340,2013-02-11 04:15:00
10:35 PM,46.4,24.8,43,30.06,10.0,NNW,9.2,-,N/A,,Clear,330,2013-02-11 04:35:00
10:55 PM,44.6,24.8,46,30.07,10.0,NW,6.9,-,N/A,,Clear,320,2013-02-11 04:55:00
11:15 PM,44.6,24.8,46,30.08,10.0,NNW,5.8,-,N/A,,Clear,330,2013-02-11 05:15:00
11:35 PM,42.8,26.6,53,30.08,10.0,Calm,Calm,-,N/A,,Clear,0,2013-02-11 05:35:00
11:55 PM,42.8,24.8,49,30.08,10.0,Calm,Calm,-,N/A,,Clear,0,2013-02-11 05:55:00